Time;durP1;ratioP1;P1;durP2;ratioP2;P2;SDS_P1;SDS_P2;PMS_P1;PMS_P2;Temp;Humidity;BMP_temperature;BMP_pressure;BME280_temperature;BME280_humidity;BME280_pressure;Samples;Min_cycle;Max_cycle;Signal;HPM_P1;HPM_P2
2021/12/03 00:01:29;;;;;;;12.43;6.67;;;;;;;9.01;60.59;101383.19;5090995;28;20547;-69
2021/12/03 00:03:57;;;;;;;17.97;6.80;;;;;;;9.01;60.58;101376.78;5073105;28;20047;-73
2021/12/03 00:06:24;;;;;;;21.13;8.23;;;;;;;9.01;60.65;101382.34;5088509;28;20071;-69
2021/12/03 00:08:51;;;;;;;14.80;6.27;;;;;;;8.91;60.75;101379.38;5072869;28;20076;-64
2021/12/03 00:11:18;;;;;;;13.73;6.20;;;;;;;8.87;61.07;101375.38;5070008;28;20771;-65
2021/12/03 00:13:45;;;;;;;12.87;6.97;;;;;;;8.86;60.89;101370.94;5071723;28;20068;-65
2021/12/03 00:16:12;;;;;;;17.93;6.80;;;;;;;8.75;60.87;101356.81;5078606;28;20064;-65
2021/12/03 00:18:40;;;;;;;16.53;7.13;;;;;;;8.83;61.06;101368.63;5067173;28;20072;-66
2021/12/03 00:21:09;;;;;;;13.23;6.43;;;;;;;8.80;61.25;101369.13;5067344;28;20140;-73
2021/12/03 00:23:36;;;;;;;15.50;6.80;;;;;;;8.73;61.12;101352.56;5071686;28;20080;-73
2021/12/03 00:26:05;;;;;;;19.00;7.50;;;;;;;8.75;61.10;101361.50;5079897;28;20108;-73
2021/12/03 00:28:33;;;;;;;12.77;7.03;;;;;;;8.72;61.13;101348.94;5079838;28;20093;-74
2021/12/03 00:31:04;;;;;;;14.13;6.43;;;;;;;8.79;60.98;101357.16;5061220;28;20232;-74
2021/12/03 00:33:31;;;;;;;17.90;7.07;;;;;;;8.87;60.90;101369.81;5078919;28;20142;-74
2021/12/03 00:36:04;;;;;;;13.90;7.40;;;;;;;8.91;60.84;101368.22;5076828;28;20072;-74
2021/12/03 00:38:39;;;;;;;22.23;7.47;;;;;;;8.88;60.73;101360.34;5071486;28;20047;-72
2021/12/03 00:41:10;;;;;;;16.30;7.10;;;;;;;8.96;60.62;101371.97;5075757;28;20067;-70
2021/12/03 00:43:40;;;;;;;;;;;;;;;8.97;60.22;101375.59;5078518;28;20131;-70
2021/12/03 00:46:09;;;;;;;;;;;;;;;8.97;60.10;101378.38;5073918;28;20027;-69
2021/12/03 00:48:37;;;;;;;10.97;5.77;;;;;;;8.94;60.15;101376.09;5078206;28;19927;-66
2021/12/03 00:51:07;;;;;;;12.60;6.70;;;;;;;8.84;60.37;101370.31;5076979;28;20059;-63
2021/12/03 00:53:34;;;;;;;18.63;6.43;;;;;;;8.87;60.48;101375.38;5074029;28;20136;-62
2021/12/03 00:56:01;;;;;;;14.20;6.67;;;;;;;8.77;60.75;101353.75;5071706;28;20313;-67
2021/12/03 00:58:28;;;;;;;17.80;5.93;;;;;;;8.73;60.50;101345.06;5077902;28;20068;-68
2021/12/03 01:00:55;;;;;;;13.83;6.67;;;;;;;8.84;60.57;101364.75;5072595;28;20052;-65
2021/12/03 01:03:23;;;;;;;20.07;7.43;;;;;;;8.75;60.56;101351.22;5080951;28;20040;-67
2021/12/03 01:05:50;;;;;;;11.37;5.83;;;;;;;8.74;61.21;101354.25;5053464;28;20084;-65
2021/12/03 01:08:16;;;;;;;21.43;8.13;;;;;;;8.72;60.95;101368.44;5068004;28;20075;-66
2021/12/03 01:10:44;;;;;;;13.90;6.10;;;;;;;8.58;60.98;101355.91;5063375;28;20051;-67
2021/12/03 01:13:11;;;;;;;11.47;6.57;;;;;;;8.55;61.33;101361.97;5075308;28;20068;-70
2021/12/03 01:15:40;;;;;;;12.17;7.07;;;;;;;8.47;61.43;101354.81;5086340;28;20233;-70
2021/12/03 01:18:09;;;;;;;19.20;8.13;;;;;;;8.47;61.60;101368.75;5072940;28;20132;-67
2021/12/03 01:20:38;;;;;;;27.27;11.13;;;;;;;8.47;61.88;101365.13;5087542;28;20127;-67
2021/12/03 01:23:06;;;;;;;25.93;11.57;;;;;;;8.38;61.62;101350.75;5090689;28;20495;-67
2021/12/03 01:25:33;;;;;;;24.77;10.30;;;;;;;8.47;61.37;101356.78;5084420;28;20048;-66
2021/12/03 01:28:01;;;;;;;17.60;9.17;;;;;;;8.51;61.37;101356.06;5068295;28;20551;-69
2021/12/03 01:30:29;;;;;;;13.40;7.70;;;;;;;8.52;61.42;101356.88;5080803;28;20076;-69
2021/12/03 01:32:58;;;;;;;16.67;7.70;;;;;;;8.55;61.47;101359.19;5082518;28;20079;-69
2021/12/03 01:35:26;;;;;;;17.80;7.37;;;;;;;8.56;61.43;101346.94;5086456;28;20127;-68
2021/12/03 01:37:53;;;;;;;10.13;6.13;;;;;;;8.54;61.49;101354.69;5072665;28;20094;-68
2021/12/03 01:40:24;;;;;;;12.30;6.77;;;;;;;8.07;61.61;101276.91;5074251;28;20076;-69
2021/12/03 01:42:51;;;;;;;11.33;6.03;;;;;;;8.37;61.79;101323.97;5074531;28;20079;-67
2021/12/03 01:45:22;;;;;;;13.13;6.07;;;;;;;8.49;61.67;101346.25;5079385;28;20068;-68
2021/12/03 01:47:50;;;;;;;14.53;5.93;;;;;;;8.41;61.80;101336.34;5089199;28;20543;-68
2021/12/03 01:50:17;;;;;;;15.83;5.97;;;;;;;8.41;61.73;101341.06;5075702;28;20260;-68
2021/12/03 01:52:44;;;;;;;11.73;6.20;;;;;;;8.51;61.63;101355.19;5079163;28;20139;-75
2021/12/03 01:55:12;;;;;;;13.20;5.60;;;;;;;8.58;61.44;101349.47;5080387;28;20080;-79
2021/12/03 01:57:40;;;;;;;12.30;6.50;;;;;;;8.57;61.38;101350.56;5086026;28;20483;-79
2021/12/03 02:00:13;;;;;;;17.47;7.23;;;;;;;8.64;61.15;101359.63;5088418;28;20076;-79
2021/12/03 02:02:39;;;;;;;19.50;8.30;;;;;;;8.62;60.69;101345.97;5082225;28;20138;-70
2021/12/03 02:05:07;;;;;;;14.10;7.77;;;;;;;8.21;60.91;101306.13;5073769;28;20044;-72
2021/12/03 02:07:34;;;;;;;18.30;8.07;;;;;;;8.49;61.05;101357.38;5075083;28;20124;-71
2021/12/03 02:10:01;;;;;;;20.73;7.97;;;;;;;8.39;61.22;101343.25;5073395;28;20515;-64
2021/12/03 02:12:28;;;;;;;26.40;10.40;;;;;;;8.43;61.43;101363.94;5055707;28;20147;-61
2021/12/03 02:14:55;;;;;;;22.60;10.33;;;;;;;8.40;61.51;101367.19;5088313;28;20101;-62
2021/12/03 02:17:22;;;;;;;22.80;9.00;;;;;;;8.42;61.72;101378.94;5085486;28;20055;-63
2021/12/03 02:19:50;;;;;;;18.60;6.93;;;;;;;8.41;61.85;101366.09;5088581;28;20094;-62
2021/12/03 02:22:17;;;;;;;17.07;7.60;;;;;;;8.30;61.98;101349.16;5082791;28;20087;-64
2021/12/03 02:24:44;;;;;;;14.50;5.47;;;;;;;8.46;62.12;101375.41;5095212;28;20127;-62
2021/12/03 02:27:11;;;;;;;8.73;4.73;;;;;;;8.54;61.73;101375.00;5056347;28;20131;-61
2021/12/03 02:29:38;;;;;;;12.20;4.97;;;;;;;8.56;61.84;101374.78;5080059;28;20075;-61
2021/12/03 02:32:05;;;;;;;12.60;4.77;;;;;;;8.52;61.83;101357.72;5076883;28;20500;-60
2021/12/03 02:34:32;;;;;;;10.97;4.23;;;;;;;8.64;61.80;101371.59;5086690;28;20086;-61
2021/12/03 02:36:59;;;;;;;10.83;4.53;;;;;;;8.33;61.47;101320.00;5085781;28;20075;-60
2021/12/03 02:39:26;;;;;;;11.23;4.60;;;;;;;8.80;61.49;101380.28;5086076;28;20131;-59
2021/12/03 02:41:52;;;;;;;14.07;4.70;;;;;;;8.83;61.36;101379.78;5069885;28;20135;-60
2021/12/03 02:44:20;;;;;;;8.30;3.83;;;;;;;8.83;61.31;101380.63;5087288;28;20128;-59
2021/12/03 02:46:47;;;;;;;14.30;4.13;;;;;;;8.69;61.56;101363.34;5075804;28;20080;-60
2021/12/03 02:49:15;;;;;;;9.80;4.43;;;;;;;8.77;61.73;101393.59;5076227;28;20131;-60
2021/12/03 02:51:42;;;;;;;7.70;3.23;;;;;;;8.68;61.60;101364.47;5052256;28;20076;-61
2021/12/03 02:54:10;;;;;;;7.77;2.77;;;;;;;8.78;61.69;101372.16;5072401;28;20079;-60
2021/12/03 02:56:37;;;;;;;11.80;3.40;;;;;;;8.84;61.92;101379.50;5087611;28;20052;-62
2021/12/03 02:59:04;;;;;;;10.03;3.17;;;;;;;8.81;61.62;101377.22;5086623;28;20132;-61
2021/12/03 03:01:32;;;;;;;4.93;2.47;;;;;;;8.85;61.41;101375.63;5078366;28;20135;-59
2021/12/03 03:03:59;;;;;;;9.53;3.20;;;;;;;8.93;61.21;101382.75;5087456;28;20081;-61
2021/12/03 03:06:26;;;;;;;6.30;3.00;;;;;;;8.83;61.06;101349.13;5077625;28;20048;-62
2021/12/03 03:08:53;;;;;;;7.43;3.00;;;;;;;9.05;60.95;101377.94;5066815;28;20097;-63
2021/12/03 03:11:22;;;;;;;12.10;3.70;;;;;;;9.06;60.70;101371.31;5083290;28;20548;-63
2021/12/03 03:13:49;;;;;;;7.57;2.90;;;;;;;9.00;60.58;101353.66;5087053;28;20076;-63
2021/12/03 03:16:17;;;;;;;9.20;3.63;;;;;;;9.14;60.50;101364.47;5076730;28;20076;-63
2021/12/03 03:18:44;;;;;;;14.33;2.57;;;;;;;9.19;60.50;101370.97;5064941;28;20381;-63
2021/12/03 03:21:11;;;;;;;11.47;3.70;;;;;;;9.22;60.18;101367.69;5085525;28;20079;-62
2021/12/03 03:23:39;;;;;;;7.80;3.87;;;;;;;9.12;60.22;101361.91;5054744;28;20076;-62
2021/12/03 03:26:06;;;;;;;11.93;3.77;;;;;;;9.04;60.42;101358.72;5084776;28;20438;-63
2021/12/03 03:28:35;;;;;;;10.97;4.30;;;;;;;8.90;60.34;101358.19;5086092;28;20044;-63
2021/12/03 03:31:02;;;;;;;8.10;4.27;;;;;;;8.81;60.41;101368.03;5079657;28;20092;-63
2021/12/03 03:33:30;;;;;;;11.73;4.10;;;;;;;8.68;60.40;101356.09;5075136;28;20117;-63
2021/12/03 03:35:57;;;;;;;10.97;4.17;;;;;;;8.57;60.42;101358.91;5082183;28;20072;-63
2021/12/03 03:38:24;;;;;;;7.13;3.90;;;;;;;8.30;60.58;101335.25;5067665;28;20076;-65
2021/12/03 03:40:53;;;;;;;6.97;4.43;;;;;;;8.31;60.68;101352.81;5082095;28;20045;-64
2021/12/03 03:43:20;;;;;;;12.00;4.50;;;;;;;8.26;60.86;101353.53;5075994;28;20094;-63
2021/12/03 03:45:47;;;;;;;9.33;4.07;;;;;;;8.29;61.18;101375.31;5073912;28;20058;-65
2021/12/03 03:48:14;;;;;;;8.67;3.37;;;;;;;8.26;61.28;101364.66;5072944;28;20127;-63
2021/12/03 03:50:42;;;;;;;7.93;3.57;;;;;;;8.29;61.42;101366.94;5076571;28;20060;-61
2021/12/03 03:53:09;;;;;;;8.43;3.93;;;;;;;8.24;61.28;101352.94;5078490;28;20139;-65
2021/12/03 03:55:35;;;;;;;7.77;3.80;;;;;;;8.16;61.19;101347.75;5073305;28;20128;-69
2021/12/03 03:58:03;;;;;;;11.00;4.43;;;;;;;7.63;60.96;101287.63;5066213;28;20131;-68
2021/12/03 04:00:39;;;;;;;10.20;3.50;;;;;;;8.13;61.31;101362.13;5085714;28;20087;-69
2021/12/03 04:03:07;;;;;;;8.97;3.77;;;;;;;8.06;61.67;101355.88;5078999;28;20078;-66
2021/12/03 04:05:35;;;;;;;7.23;3.73;;;;;;;8.00;62.06;101345.72;5072082;28;20119;-66
2021/12/03 04:08:03;;;;;;;8.70;4.10;;;;;;;8.12;61.91;101357.69;5067556;28;20123;-66
2021/12/03 04:10:30;;;;;;;9.33;3.53;;;;;;;7.92;61.89;101324.69;5072389;28;20127;-67
2021/12/03 04:12:57;;;;;;;10.43;4.10;;;;;;;7.94;61.63;101338.38;5075359;28;20130;-66
2021/12/03 04:15:24;;;;;;;15.70;5.13;;;;;;;7.87;61.45;101329.31;5080980;28;20507;-66
2021/12/03 04:17:51;;;;;;;10.67;4.50;;;;;;;7.89;61.58;101344.63;5074549;28;20131;-68
2021/12/03 04:20:19;;;;;;;11.53;5.00;;;;;;;7.89;61.77;101347.41;5061506;28;20072;-67
2021/12/03 04:22:47;;;;;;;9.63;5.33;;;;;;;7.90;62.12;101351.91;5085948;28;20436;-68
2021/12/03 04:25:17;;;;;;;16.43;7.27;;;;;;;7.72;62.26;101327.84;5067074;28;20132;-68
2021/12/03 04:27:45;;;;;;;13.20;6.20;;;;;;;7.67;62.64;101318.56;5077138;28;20040;-68
2021/12/03 04:30:17;;;;;;;12.80;5.60;;;;;;;7.63;63.13;101337.66;5078089;28;20368;-68
2021/12/03 04:32:45;;;;;;;11.53;5.20;;;;;;;7.59;63.19;101337.31;5085057;28;20479;-68
2021/12/03 04:35:12;;;;;;;9.73;5.77;;;;;;;7.59;63.26;101328.13;5083151;28;20143;-68
2021/12/03 04:37:39;;;;;;;11.73;5.60;;;;;;;7.79;62.87;101336.94;5086521;28;20047;-68
2021/12/03 04:40:08;;;;;;;16.03;5.57;;;;;;;7.88;62.80;101339.34;5071795;28;20082;-68
2021/12/03 04:42:36;;;;;;;7.80;5.20;;;;;;;7.85;62.29;101323.97;5065452;28;20098;-67
2021/12/03 04:45:05;;;;;;;13.93;5.97;;;;;;;7.78;62.03;101323.25;5078402;28;20132;-66
2021/12/03 04:47:32;;;;;;;8.25;5.15;;;;;;;7.83;61.88;101338.13;5059616;28;20407;-67
2021/12/03 04:50:00;;;;;;;7.37;4.93;;;;;;;7.76;61.67;101333.75;5070353;28;20079;-68
2021/12/03 04:52:27;;;;;;;12.93;5.07;;;;;;;7.64;61.71;101335.72;5084697;28;20091;-69
2021/12/03 04:54:54;;;;;;;16.93;5.80;;;;;;;7.64;61.92;101347.69;5073408;28;20072;-67
2021/12/03 04:57:21;;;;;;;8.90;4.27;;;;;;;7.62;61.96;101349.00;5049623;28;20135;-66
2021/12/03 04:59:48;;;;;;;6.87;3.40;;;;;;;7.56;62.47;101359.19;5076018;28;20136;-68
2021/12/03 05:02:16;;;;;;;13.33;4.17;;;;;;;7.10;63.99;101333.84;5073905;28;20084;-69
2021/12/03 05:04:43;;;;;;;10.20;6.07;;;;;;;6.98;64.24;101341.31;5077823;28;20469;-69
2021/12/03 05:09:37;;;;;;;14.90;7.43;;;;;;;6.68;65.33;101366.31;5091936;28;20440;-70
2021/12/03 05:12:05;;;;;;;14.27;5.93;;;;;;;6.41;65.91;101352.81;5078280;28;20087;-66
2021/12/03 05:14:32;;;;;;;8.07;5.00;;;;;;;6.18;66.62;101344.34;5077719;28;20083;-68
2021/12/03 05:16:59;;;;;;;12.90;6.97;;;;;;;6.24;66.98;101373.09;5075500;28;20127;-69
2021/12/03 05:19:25;;;;;;;15.13;8.30;;;;;;;6.10;67.28;101362.16;5076829;28;20127;-69
2021/12/03 05:21:52;;;;;;;13.03;6.17;;;;;;;6.21;67.36;101379.94;5074377;28;20079;-69
2021/12/03 05:24:19;;;;;;;15.27;7.83;;;;;;;6.24;67.17;101384.19;5079159;28;20087;-68
2021/12/03 05:26:46;;;;;;;11.33;6.37;;;;;;;6.16;67.26;101366.78;5073980;28;20040;-67
2021/12/03 05:29:14;;;;;;;9.50;5.50;;;;;;;6.06;67.50;101360.09;5074289;28;20080;-68
2021/12/03 05:31:41;;;;;;;7.97;5.60;;;;;;;6.18;67.84;101378.47;5072803;28;20088;-68
2021/12/03 05:34:26;;;;;;;9.07;6.43;;;;;;;6.32;67.63;101384.72;5072416;28;20048;-68
2021/12/03 05:36:53;;;;;;;10.10;5.80;;;;;;;6.33;67.57;101382.81;5075576;28;20072;-68
2021/12/03 05:39:20;;;;;;;15.00;6.30;;;;;;;6.18;67.88;101358.22;5090331;28;20135;-69
2021/12/03 05:41:46;;;;;;;8.07;5.30;;;;;;;6.41;68.02;101380.56;5081281;28;20094;-69
2021/12/03 05:44:13;;;;;;;10.07;5.77;;;;;;;6.45;67.88;101385.63;5073500;28;20499;-66
2021/12/03 05:46:40;;;;;;;10.10;4.80;;;;;;;6.32;67.98;101365.28;5086803;28;20080;-66
2021/12/03 05:49:07;;;;;;;11.27;5.73;;;;;;;6.42;67.96;101386.94;5080871;28;20440;-66
2021/12/03 05:51:35;;;;;;;10.83;5.07;;;;;;;6.32;67.99;101376.38;5078110;28;20636;-66
2021/12/03 05:54:02;;;;;;;9.93;4.93;;;;;;;6.32;68.17;101392.19;5086239;28;20052;-65
2021/12/03 05:56:29;;;;;;;13.90;5.87;;;;;;;6.21;68.35;101385.50;5070856;28;20055;-65
2021/12/03 05:58:59;;;;;;;10.82;5.88;;;;;;;6.11;68.45;101388.78;5076591;28;20076;-64
2021/12/03 06:01:26;;;;;;;9.07;5.23;;;;;;;6.02;68.50;101369.94;5062355;28;20114;-65
2021/12/03 06:03:54;;;;;;;10.00;5.90;;;;;;;6.11;68.58;101385.19;5077513;28;20083;-65
2021/12/03 06:06:21;;;;;;;12.03;5.57;;;;;;;6.02;68.54;101381.03;5084197;28;20131;-63
2021/12/03 06:08:48;;;;;;;9.97;5.27;;;;;;;6.03;68.36;101368.88;5074843;28;20554;-59
2021/12/03 06:11:15;;;;;;;12.87;5.73;;;;;;;6.03;68.61;101377.19;5081160;28;20080;-65
2021/12/03 06:13:42;;;;;;;12.67;5.40;;;;;;;6.16;68.62;101388.13;5071112;28;20396;-67
2021/12/03 06:16:11;;;;;;;9.57;5.57;;;;;;;6.25;68.87;101381.16;5071202;28;20552;-66
2021/12/03 06:18:39;;;;;;;10.30;5.50;;;;;;;6.33;68.41;101372.56;5070790;28;20052;-68
2021/12/03 06:21:08;;;;;;;8.90;4.17;;;;;;;6.47;68.64;101398.19;5055741;28;20072;-70
2021/12/03 06:23:36;;;;;;;8.90;4.70;;;;;;;6.56;68.68;101393.16;5080536;28;20044;-68
2021/12/03 06:26:04;;;;;;;10.80;5.70;;;;;;;6.54;68.65;101396.19;5080832;28;20506;-74
2021/12/03 06:28:31;;;;;;;7.87;5.47;;;;;;;6.49;68.51;101395.19;5084464;28;20039;-66
2021/12/03 06:30:59;;;;;;;15.63;5.73;;;;;;;6.52;68.22;101403.03;5079255;28;20139;-68
2021/12/03 06:33:26;;;;;;;9.33;6.43;;;;;;;6.50;67.99;101397.75;5078084;28;20543;-58
2021/12/03 06:35:53;;;;;;;10.93;6.30;;;;;;;6.54;67.77;101396.19;5087826;28;20044;-61
2021/12/03 06:38:20;;;;;;;12.90;6.50;;;;;;;6.56;67.39;101384.84;5086193;28;20123;-65
2021/12/03 06:40:51;;;;;;;13.90;5.87;;;;;;;6.63;67.36;101403.13;5082657;28;20094;-60
2021/12/03 06:43:19;;;;;;;13.43;6.57;;;;;;;6.58;67.24;101408.50;5068213;28;20127;-59
2021/12/03 06:45:46;;;;;;;14.93;8.07;;;;;;;6.63;67.00;101396.69;5089310;28;20176;-58
2021/12/03 06:48:14;;;;;;;13.50;5.87;;;;;;;6.73;66.91;101410.88;5086465;28;20084;-62
2021/12/03 06:50:43;;;;;;;9.40;6.37;;;;;;;6.76;66.67;101398.44;5079987;28;20052;-61
2021/12/03 06:53:13;;;;;;;20.77;9.50;;;;;;;6.45;67.24;101407.84;5067710;28;20048;-61
2021/12/03 06:55:56;;;;;;;22.52;6.97;;;;;;;6.13;67.46;101416.31;5084496;28;20052;-64
2021/12/03 06:58:24;;;;;;;11.50;6.40;;;;;;;5.69;67.56;101398.81;5069837;28;20068;-60
2021/12/03 07:00:55;;;;;;;7.77;4.33;;;;;;;5.47;68.28;101426.94;5089501;28;20088;-63
2021/12/03 07:03:22;;;;;;;7.33;4.07;;;;;;;5.22;69.06;101421.34;5085424;28;20055;-59
2021/12/03 07:05:50;;;;;;;9.47;4.23;;;;;;;4.76;69.62;101393.97;5082004;28;20130;-61
2021/12/03 07:08:17;;;;;;;9.60;5.60;;;;;;;4.72;70.85;101425.94;5088130;28;20072;-62
2021/12/03 07:10:44;;;;;;;16.70;7.77;;;;;;;4.55;71.06;101424.72;5082864;28;20048;-62
2021/12/03 07:13:11;;;;;;;10.20;5.10;;;;;;;4.63;71.26;101443.84;5076759;28;20056;-62
2021/12/03 07:15:38;;;;;;;11.53;7.30;;;;;;;4.38;71.11;101418.84;5079388;28;20441;-61
2021/12/03 07:18:05;;;;;;;6.83;3.87;;;;;;;4.39;71.73;101428.84;5076589;28;21607;-61
2021/12/03 07:20:32;;;;;;;6.63;3.50;;;;;;;4.46;72.15;101440.72;5078962;28;20472;-61
2021/12/03 07:22:59;;;;;;;6.00;2.97;;;;;;;4.41;72.95;101446.91;5082059;28;20777;-61
2021/12/03 07:25:26;;;;;;;6.57;4.60;;;;;;;4.37;72.60;101437.34;5089326;28;20132;-61
2021/12/03 07:27:53;;;;;;;9.97;5.17;;;;;;;4.34;73.08;101435.03;5084146;28;20135;-62
2021/12/03 07:30:21;;;;;;;8.53;5.70;;;;;;;4.52;72.74;101453.69;5085857;28;20519;-62
2021/12/03 07:32:49;;;;;;;9.43;5.70;;;;;;;4.55;72.76;101438.53;5064754;28;20389;-62
2021/12/03 07:35:16;;;;;;;7.27;4.87;;;;;;;4.44;73.32;101413.25;5071009;28;20492;-61
2021/12/03 07:37:43;;;;;;;9.77;5.10;;;;;;;4.85;73.20;101459.06;5086136;28;20040;-61
2021/12/03 07:40:12;;;;;;;13.43;7.27;;;;;;;4.95;72.89;101458.56;5081361;28;20036;-62
2021/12/03 07:42:40;;;;;;;13.23;5.70;;;;;;;5.09;72.78;101448.28;5075860;28;20074;-63
2021/12/03 07:45:09;;;;;;;6.93;4.30;;;;;;;5.19;72.88;101438.41;5055247;28;20048;-61
2021/12/03 07:47:37;;;;;;;8.13;5.73;;;;;;;5.30;72.45;101447.94;5080680;28;20080;-63
2021/12/03 07:50:09;;;;;;;9.90;5.13;;;;;;;5.33;72.48;101433.63;5078651;28;20824;-62
2021/12/03 07:52:37;;;;;;;9.43;6.63;;;;;;;5.65;72.23;101455.78;5082561;28;20135;-62
2021/12/03 07:55:05;;;;;;;11.63;5.87;;;;;;;5.90;72.11;101459.38;5075295;28;20575;-62
2021/12/03 07:57:31;;;;;;;10.30;5.33;;;;;;;5.77;72.21;101429.00;5080424;28;20139;-63
2021/12/03 07:59:59;;;;;;;10.10;4.57;;;;;;;6.03;71.77;101439.03;5067726;28;20044;-64
2021/12/03 08:02:26;;;;;;;19.77;4.27;;;;;;;6.13;71.49;101444.06;5081693;28;20067;-63
2021/12/03 08:04:54;;;;;;;6.73;3.23;;;;;;;6.33;71.69;101460.47;5080317;28;20094;-60
2021/12/03 08:07:21;;;;;;;10.83;5.10;;;;;;;6.33;71.31;101466.88;5073278;28;20091;-63
2021/12/03 08:09:47;;;;;;;6.97;4.13;;;;;;;6.34;70.83;101473.25;5074227;28;20076;-62
2021/12/03 08:12:14;;;;;;;9.23;4.70;;;;;;;6.33;70.96;101468.81;5068892;28;20148;-62
2021/12/03 08:14:41;;;;;;;11.77;5.73;;;;;;;6.32;70.67;101472.63;5078234;28;20140;-62
2021/12/03 08:17:09;;;;;;;5.53;4.00;;;;;;;6.23;70.66;101472.09;5077019;28;20085;-62
2021/12/03 08:19:36;;;;;;;10.87;4.53;;;;;;;6.12;70.63;101472.84;5072202;28;20401;-62
2021/12/03 08:22:03;;;;;;;10.53;5.47;;;;;;;5.97;70.93;101466.81;5075121;28;20048;-61
2021/12/03 08:24:30;;;;;;;11.17;7.40;;;;;;;5.99;71.17;101464.69;5076195;28;20139;-61
2021/12/03 08:26:57;;;;;;;7.70;5.40;;;;;;;6.21;71.48;101473.41;5080612;28;20518;-62
2021/12/03 08:29:30;;;;;;;26.53;10.23;;;;;;;6.31;71.02;101457.06;5071520;28;20095;-62
2021/12/03 08:31:57;;;;;;;9.10;5.77;;;;;;;6.58;70.42;101490.91;5084797;28;20119;-62
2021/12/03 08:34:24;;;;;;;17.37;7.90;;;;;;;6.73;70.06;101480.25;5054011;28;20052;-61
2021/12/03 08:36:51;;;;;;;12.53;7.23;;;;;;;7.12;69.67;101498.34;5072679;28;20140;-62
2021/12/03 08:39:19;;;;;;;11.97;6.43;;;;;;;7.32;69.44;101500.84;5082375;28;20569;-61
2021/12/03 08:41:46;;;;;;;12.13;5.87;;;;;;;7.22;69.05;101453.34;5055815;28;20066;-61
2021/12/03 08:44:13;;;;;;;11.77;5.97;;;;;;;7.72;68.84;101511.34;5084632;28;20660;-62
2021/12/03 08:46:40;;;;;;;28.90;11.03;;;;;;;7.73;68.54;101510.28;5079597;28;20071;-62
2021/12/03 08:49:28;;;;;;;24.07;11.17;;;;;;;7.38;68.35;101479.59;5083631;28;20048;-61
2021/12/03 08:57:20;;;;;;;;;;;;;;;6.98;68.27;101512.66;5080204;28;20075;-61
2021/12/03 08:59:48;;;;;;;16.87;10.17;;;;;;;7.04;68.49;101517.25;5076742;28;20379;-61
2021/12/03 09:02:14;;;;;;;18.40;8.73;;;;;;;7.71;69.25;101523.56;5084816;28;20182;-61
2021/12/03 09:04:41;;;;;;;16.07;7.40;;;;;;;8.62;69.11;101524.16;5062977;28;20101;-62
2021/12/03 09:07:09;;;;;;;19.90;8.10;;;;;;;9.18;67.93;101505.84;5079525;28;20472;-61
2021/12/03 09:09:35;;;;;;;12.17;4.93;;;;;;;9.92;66.51;101535.66;5071366;28;20048;-61
2021/12/03 09:12:03;;;;;;;17.23;8.60;;;;;;;10.39;64.59;101536.22;5078192;28;20104;-61
2021/12/03 09:14:45;;;;;;;15.43;9.47;;;;;;;11.28;64.32;101534.31;5077070;28;20473;-61
2021/12/03 09:25:01;;;;;;;12.40;6.90;;;;;;;12.53;59.45;101523.78;5079612;28;20122;-62
2021/12/03 09:27:28;;;;;;;12.27;6.67;;;;;;;12.73;58.03;101530.63;5073891;28;20536;-61
2021/12/03 09:29:57;;;;;;;12.17;6.53;;;;;;;13.04;58.30;101537.22;5070198;28;20079;-63
2021/12/03 09:32:28;;;;;;;16.07;8.20;;;;;;;12.89;57.39;101543.63;5079101;28;20124;-62
2021/12/03 09:34:55;;;;;;;11.93;8.03;;;;;;;13.02;56.57;101548.75;5079311;28;20048;-62
2021/12/03 09:37:22;;;;;;;11.13;7.53;;;;;;;13.01;55.62;101544.22;5056745;28;20048;-62
2021/12/03 09:39:50;;;;;;;11.20;7.10;;;;;;;12.70;55.65;101550.78;5073501;28;20151;-61
2021/12/03 09:42:21;;;;;;;12.07;7.40;;;;;;;12.29;56.12;101556.09;5073341;28;20093;-60
2021/12/03 09:44:52;;;;;;;12.53;6.77;;;;;;;11.62;56.54;101551.78;5071954;28;20082;-61
2021/12/03 09:47:19;;;;;;;12.13;7.33;;;;;;;10.97;57.53;101559.09;5073505;28;20119;-60
2021/12/03 09:49:54;;;;;;;14.70;7.07;;;;;;;10.37;58.38;101560.75;5071712;28;20101;-61
2021/12/03 09:54:58;;;;;;;8.73;5.70;;;;;;;10.97;59.58;101561.03;5081482;28;20456;-61
2021/12/03 09:58:03;;;;;;;12.90;7.03;;;;;;;11.44;58.75;101569.75;5076356;28;20127;-61
2021/12/03 10:00:27;;;;;;;10.70;7.20;;;;;;;11.39;57.95;101564.97;5073510;28;20512;-61
2021/12/03 10:20:12;;;;;;;14.83;7.00;;;;;;;13.84;55.00;101560.25;5085215;28;20500;-62
2021/12/03 11:43:00;;;;;;;;;;;;;;;10.66;60.40;101529.88;5082794;28;20094;-59
2021/12/03 12:05:04;;;;;;;16.93;7.77;;;;;;;11.31;60.58;101500.25;5075642;28;20048;-60
2021/12/03 12:39:30;;;;;;;17.20;8.50;;;;;;;13.88;57.36;101454.69;5049037;28;20559;-60
2021/12/03 12:46:24;;;;;;;13.70;7.30;;;;;;;13.90;57.20;101446.81;4983542;28;20077;-59
2021/12/03 13:32:33;;;;;;;13.87;6.20;;;;;;;12.89;58.88;101419.41;5061341;28;20126;-61
2021/12/03 14:51:15;;;;;;;11.57;4.83;;;;;;;13.31;60.54;101365.97;5087820;28;20119;-61
2021/12/03 14:56:18;;;;;;;16.57;6.33;;;;;;;13.19;61.28;101363.41;5078628;28;20143;-60
2021/12/03 14:58:51;;;;;;;13.47;5.87;;;;;;;13.19;61.31;101362.56;5071996;28;20128;-60
2021/12/03 15:01:44;;;;;;;15.70;5.40;;;;;;;13.14;61.71;101360.59;5058389;28;20075;-60
2021/12/03 15:08:04;;;;;;;15.00;6.03;;;;;;;13.24;61.51;101357.00;5066902;28;20076;-61
2021/12/03 15:09:57;;;;;;;19.20;5.67;;;;;;;13.23;61.64;101350.53;5051947;28;20049;-60
2021/12/03 15:12:58;;;;;;;13.87;5.30;;;;;;;13.40;61.05;101358.72;5072149;28;20118;-61
2021/12/03 15:16:03;;;;;;;11.70;5.80;;;;;;;13.47;60.90;101352.81;5071325;28;20127;-60
2021/12/03 15:23:58;;;;;;;12.50;5.87;;;;;;;13.54;60.94;101358.97;5066349;28;20143;-61
2021/12/03 15:31:51;;;;;;;13.50;5.53;;;;;;;13.52;60.99;101359.25;5017901;28;1373456;-60
2021/12/03 15:58:34;;;;;;;9.00;3.23;;;;;;;14.01;61.15;101365.38;5049485;28;20068;-61
2021/12/03 16:04:37;;;;;;;4.30;2.03;;;;;;;13.93;61.32;101370.44;5057702;28;20083;-60
2021/12/03 16:12:10;;;;;;;5.67;2.43;;;;;;;13.87;61.46;101371.56;5060201;28;20127;-60
2021/12/03 16:20:32;;;;;;;5.60;2.27;;;;;;;13.88;61.85;101381.69;5056391;28;20620;-61
2021/12/03 16:25:35;;;;;;;9.27;2.83;;;;;;;13.75;62.08;101376.66;5067517;28;20076;-63
2021/12/03 16:48:15;;;;;;;6.87;1.90;;;;;;;13.15;63.63;101369.84;5041424;28;20463;-59
2021/12/03 16:53:32;;;;;;;3.73;1.80;;;;;;;13.09;64.06;101373.75;5038151;28;20064;-60
2021/12/03 16:56:18;;;;;;;13.53;2.20;;;;;;;12.99;64.19;101371.78;5048230;28;20134;-61
2021/12/03 16:58:45;;;;;;;7.07;1.77;;;;;;;12.95;64.25;101373.44;5046308;28;20064;-61
2021/12/03 17:01:34;;;;;;;10.43;2.17;;;;;;;12.91;64.45;101373.16;5042431;28;20587;-60
2021/12/03 17:04:12;;;;;;;7.07;2.63;;;;;;;12.82;64.53;101363.63;5042629;28;20099;-58
2021/12/03 17:47:30;;;;;;;5.13;2.80;;;;;;;12.21;67.40;101383.81;5052377;28;20111;-58
2021/12/03 17:55:30;;;;;;;14.80;2.57;;;;;;;11.99;68.46;101367.16;5069011;28;20080;-60
2021/12/03 18:00:38;;;;;;;6.67;3.13;;;;;;;11.86;69.04;101373.22;5057302;28;20091;-60
2021/12/03 18:03:14;;;;;;;5.03;2.50;;;;;;;11.88;69.24;101382.19;5079226;28;20051;-60
2021/12/03 18:19:40;;;;;;;5.97;3.30;;;;;;;11.77;69.71;101355.22;5070540;28;20136;-61
2021/12/03 18:44:44;;;;;;;12.50;4.60;;;;;;;11.72;70.84;101374.75;5064089;28;20500;-64
2021/12/03 18:55:10;;;;;;;10.60;5.67;;;;;;;11.51;71.43;101357.81;5069390;28;20127;-63
2021/12/03 18:57:43;;;;;;;12.63;5.60;;;;;;;11.66;71.19;101362.72;5069307;28;20075;-63
2021/12/03 19:00:14;;;;;;;7.63;5.20;;;;;;;11.70;71.37;101375.03;5062230;28;20044;-64
2021/12/03 19:02:45;;;;;;;10.43;4.00;;;;;;;11.65;71.64;101374.16;5058862;28;20123;-63
2021/12/03 19:05:43;;;;;;;9.00;5.20;;;;;;;11.49;72.17;101350.81;5050952;28;20124;-64
2021/12/03 19:08:12;;;;;;;10.20;5.13;;;;;;;11.60;71.95;101374.97;5058601;28;20091;-64
2021/12/03 19:10:49;;;;;;;13.37;5.50;;;;;;;11.53;72.26;101366.78;5067979;28;20040;-65
2021/12/03 19:13:23;;;;;;;11.63;5.40;;;;;;;11.57;72.53;101367.09;5066313;28;20471;-63
2021/12/03 19:15:50;;;;;;;13.47;5.77;;;;;;;11.57;72.63;101365.13;5058877;28;20052;-63
2021/12/03 19:18:21;;;;;;;9.67;5.17;;;;;;;11.45;72.40;101339.28;5068248;28;20076;-65
2021/12/03 19:20:50;;;;;;;13.77;6.13;;;;;;;11.60;72.51;101349.78;5060486;28;20055;-64